Time;durP1;ratioP1;P1;durP2;ratioP2;P2;SDS_P1;SDS_P2;PMS_P1;PMS_P2;Temp;Humidity;BMP_temperature;BMP_pressure;BME280_temperature;BME280_humidity;BME280_pressure;Samples;Min_cycle;Max_cycle;Signal;HPM_P1;HPM_P2
2022/08/25 00:00:19;;;;;;;13.40;11.85;;;20.40;99.90;;;;;;5053663;28;20068;-69
2022/08/25 00:02:44;;;;;;;14.30;11.88;;;20.30;99.90;;;;;;5038502;28;20033;-69
2022/08/25 00:05:11;;;;;;;14.77;12.40;;;20.40;99.90;;;;;;5038356;28;20040;-70
2022/08/25 00:07:36;;;;;;;12.77;11.48;;;20.30;99.90;;;;;;5035501;28;20072;-69
2022/08/25 00:10:03;;;;;;;13.10;11.70;;;20.30;99.90;;;;;;5037137;28;20071;-70
2022/08/25 00:12:29;;;;;;;14.07;11.57;;;20.20;99.90;;;;;;5039276;28;20464;-69
2022/08/25 00:14:55;;;;;;;15.50;12.00;;;20.30;99.90;;;;;;5037349;28;20045;-70
2022/08/25 00:17:20;;;;;;;13.85;12.45;;;20.20;99.90;;;;;;5038868;28;20442;-70
2022/08/25 00:19:46;;;;;;;14.45;12.38;;;20.20;99.90;;;;;;5041086;28;20033;-70
2022/08/25 00:22:11;;;;;;;14.50;11.95;;;20.20;99.90;;;;;;5032410;28;20037;-69
2022/08/25 00:24:37;;;;;;;13.60;11.73;;;20.20;99.90;;;;;;5042120;28;20128;-69
2022/08/25 00:27:03;;;;;;;13.10;11.70;;;20.10;99.90;;;;;;5042199;28;20033;-69
2022/08/25 00:29:30;;;;;;;16.67;11.80;;;20.10;99.90;;;;;;5043306;28;20476;-70
2022/08/25 00:31:56;;;;;;;14.10;11.70;;;20.10;99.90;;;;;;5038035;28;20140;-69
2022/08/25 00:34:27;;;;;;;13.32;11.98;;;20.10;99.90;;;;;;5056368;28;20049;-69
2022/08/25 00:36:53;;;;;;;15.38;11.57;;;20.10;99.90;;;;;;5042600;28;20553;-70
2022/08/25 00:39:21;;;;;;;12.05;10.80;;;20.10;99.90;;;;;;5042857;28;20049;-70
2022/08/25 00:41:50;;;;;;;16.05;11.13;;;20.10;99.90;;;;;;5039669;28;20049;-70
2022/08/25 00:44:17;;;;;;;11.02;9.73;;;20.10;99.90;;;;;;5055925;28;20041;-70
2022/08/25 00:46:55;;;;;;;12.85;9.63;;;20.00;99.90;;;;;;5040876;28;20675;-70
2022/08/25 00:49:27;;;;;;;10.52;9.10;;;20.00;99.90;;;;;;5041791;28;20110;-69
2022/08/25 00:52:01;;;;;;;;;;;20.00;99.90;;;;;;5042432;28;20045;-69
2022/08/25 00:54:35;;;;;;;11.73;8.73;;;20.00;99.90;;;;;;5042952;28;20421;-69
2022/08/25 00:57:03;;;;;;;10.55;9.00;;;19.90;99.90;;;;;;5039708;28;20055;-69
2022/08/25 00:59:29;;;;;;;11.32;8.30;;;19.90;99.90;;;;;;5056257;28;20045;-70
2022/08/25 01:01:57;;;;;;;12.68;8.60;;;19.90;99.90;;;;;;5026194;28;20398;-70
2022/08/25 01:04:24;;;;;;;10.32;8.23;;;19.90;99.90;;;;;;5042237;28;20398;-69
2022/08/25 01:06:50;;;;;;;9.35;8.02;;;19.80;99.90;;;;;;5040857;28;20042;-69
2022/08/25 01:09:18;;;;;;;11.73;7.97;;;19.80;99.90;;;;;;5041467;28;20033;-70
2022/08/25 01:11:45;;;;;;;9.48;8.25;;;19.80;99.90;;;;;;5038377;28;20479;-70
2022/08/25 01:14:14;;;;;;;12.93;8.18;;;19.80;99.90;;;;;;5058058;28;20113;-69
2022/08/25 01:16:42;;;;;;;9.30;7.53;;;19.80;99.90;;;;;;5039725;28;20073;-69
2022/08/25 01:19:11;;;;;;;9.30;8.00;;;19.70;99.90;;;;;;5037191;28;20102;-69
2022/08/25 01:21:41;;;;;;;9.95;7.78;;;19.70;99.90;;;;;;5053370;28;20091;-70
2022/08/25 01:24:10;;;;;;;9.15;7.47;;;19.70;99.90;;;;;;5042480;28;20091;-70
2022/08/25 01:26:36;;;;;;;8.63;7.50;;;19.70;99.90;;;;;;5040158;28;20078;-70
2022/08/25 01:29:20;;;;;;;9.48;7.53;;;19.70;99.90;;;;;;5041819;28;20426;-69
2022/08/25 01:31:50;;;;;;;8.55;7.10;;;19.70;99.90;;;;;;5056757;28;20041;-69
2022/08/25 01:34:17;;;;;;;9.38;7.45;;;19.60;99.90;;;;;;5050790;28;20037;-70
2022/08/25 01:36:44;;;;;;;11.68;7.00;;;19.60;99.90;;;;;;5040935;28;20063;-70
2022/08/25 01:39:11;;;;;;;9.30;6.97;;;19.60;99.90;;;;;;5037581;28;20037;-70
2022/08/25 01:42:10;;;;;;;9.85;7.03;;;19.60;99.90;;;;;;5040041;28;20044;-70
2022/08/25 01:44:46;;;;;;;8.93;6.38;;;19.60;99.90;;;;;;5036963;28;20575;-70
2022/08/25 01:47:13;;;;;;;8.68;6.43;;;19.50;99.90;;;;;;5038294;28;20305;-70
2022/08/25 01:49:39;;;;;;;7.07;6.30;;;19.50;99.90;;;;;;5041221;28;20776;-70
2022/08/25 01:52:05;;;;;;;8.32;6.53;;;19.50;99.90;;;;;;5037027;28;20132;-70
2022/08/25 01:54:30;;;;;;;12.13;6.78;;;19.50;99.90;;;;;;5026065;28;21318;-70
2022/08/25 01:56:58;;;;;;;8.00;6.60;;;19.50;99.90;;;;;;5040365;28;20052;-70
2022/08/25 01:59:24;;;;;;;8.68;6.65;;;19.40;99.90;;;;;;5038142;28;20041;-69
2022/08/25 02:01:50;;;;;;;11.90;6.55;;;19.40;99.90;;;;;;5043115;28;20052;-69
2022/08/25 02:04:16;;;;;;;7.75;5.97;;;19.40;99.90;;;;;;5056301;28;20492;-70
2022/08/25 02:06:41;;;;;;;7.93;6.55;;;19.40;99.90;;;;;;5055012;28;20052;-71
2022/08/25 02:09:10;;;;;;;8.07;5.93;;;19.40;99.90;;;;;;5055853;28;20043;-70
2022/08/25 02:11:39;;;;;;;8.80;5.80;;;19.40;99.90;;;;;;5035909;28;20612;-70
2022/08/25 02:14:06;;;;;;;8.18;5.90;;;19.30;99.90;;;;;;5055985;28;20897;-68
2022/08/25 02:16:35;;;;;;;7.72;6.30;;;19.30;99.90;;;;;;5039191;28;20041;-69
2022/08/25 02:19:01;;;;;;;9.43;5.95;;;19.30;99.90;;;;;;5055560;28;20060;-69
2022/08/25 02:21:27;;;;;;;9.77;5.65;;;19.20;99.90;;;;;;5040491;28;20045;-69
2022/08/25 02:23:53;;;;;;;9.65;5.50;;;19.20;99.90;;;;;;5036547;28;20040;-69
2022/08/25 02:26:19;;;;;;;7.60;5.80;;;19.20;99.90;;;;;;5040460;28;20174;-69
2022/08/25 02:28:47;;;;;;;8.32;5.80;;;19.20;99.90;;;;;;5037163;28;20041;-69
2022/08/25 02:31:14;;;;;;;6.15;5.55;;;19.20;99.90;;;;;;5040932;28;20124;-69
2022/08/25 02:33:40;;;;;;;8.65;5.60;;;19.20;99.90;;;;;;5041090;28;20226;-69
2022/08/25 02:36:06;;;;;;;7.38;5.10;;;19.10;99.90;;;;;;5037730;28;20430;-69
2022/08/25 02:38:32;;;;;;;8.85;5.22;;;19.10;99.90;;;;;;5038757;28;20399;-69
2022/08/25 02:40:59;;;;;;;6.45;5.43;;;19.10;99.90;;;;;;5039237;28;20479;-69
2022/08/25 02:43:26;;;;;;;8.90;5.00;;;19.10;99.90;;;;;;5042760;28;21394;-69
2022/08/25 02:45:53;;;;;;;8.18;5.35;;;19.10;99.90;;;;;;5055186;28;20041;-69
2022/08/25 02:48:18;;;;;;;8.63;4.82;;;19.00;99.90;;;;;;5051900;28;20450;-69
2022/08/25 02:50:51;;;;;;;7.10;5.32;;;19.00;99.90;;;;;;5037377;28;20048;-69
2022/08/25 02:53:17;;;;;;;11.38;5.53;;;19.00;99.90;;;;;;5040474;28;20045;-69
2022/08/25 02:55:43;;;;;;;9.05;5.93;;;19.00;99.90;;;;;;5040905;28;20399;-69
2022/08/25 02:58:09;;;;;;;8.38;5.45;;;19.00;99.90;;;;;;5038053;28;20034;-69
2022/08/25 03:00:35;;;;;;;9.52;5.82;;;19.00;99.90;;;;;;5056651;28;20120;-69
2022/08/25 03:03:01;;;;;;;10.75;6.03;;;19.00;99.90;;;;;;5054770;28;20129;-69
2022/08/25 03:05:26;;;;;;;7.55;6.00;;;18.90;99.90;;;;;;5039552;28;20036;-69
2022/08/25 03:07:52;;;;;;;7.70;5.28;;;18.90;99.90;;;;;;5042005;28;20035;-69
2022/08/25 03:10:18;;;;;;;8.38;5.95;;;18.90;99.90;;;;;;5038354;28;20033;-69
2022/08/25 03:12:45;;;;;;;8.55;5.80;;;18.90;99.90;;;;;;5037205;28;20645;-69
2022/08/25 03:15:13;;;;;;;8.95;5.45;;;18.90;99.90;;;;;;5054022;28;20048;-70
2022/08/25 03:17:38;;;;;;;8.95;5.35;;;18.80;99.90;;;;;;5039907;28;20132;-69
2022/08/25 03:20:05;;;;;;;5.82;5.22;;;18.80;99.90;;;;;;5040716;28;20539;-69
2022/08/25 03:22:31;;;;;;;7.43;4.90;;;18.80;99.90;;;;;;5056901;28;20045;-69
2022/08/25 03:26:52;;;;;;;7.45;4.80;;;18.80;99.90;;;;;;5055702;28;20404;-69
2022/08/25 03:27:42;;;;;;;9.18;5.07;;;18.80;99.90;;;;;;5038019;28;20060;-69
2022/08/25 03:30:08;;;;;;;7.63;5.53;;;18.80;99.90;;;;;;5055095;28;20032;-69
2022/08/25 03:32:34;;;;;;;8.27;5.97;;;18.80;99.90;;;;;;5041010;28;20403;-69
2022/08/25 03:35:00;;;;;;;8.10;5.68;;;18.80;99.90;;;;;;5041059;28;20041;-69
2022/08/25 03:37:26;;;;;;;7.97;5.68;;;18.70;99.90;;;;;;5053911;28;20075;-69
2022/08/25 03:39:52;;;;;;;9.57;5.78;;;18.70;99.90;;;;;;5042425;28;20480;-70
2022/08/25 03:42:18;;;;;;;7.82;5.55;;;18.70;99.90;;;;;;5041430;28;20036;-68
2022/08/25 03:44:44;;;;;;;7.95;6.15;;;18.70;99.90;;;;;;5052803;28;20056;-69
2022/08/25 03:47:09;;;;;;;11.38;5.53;;;18.70;99.90;;;;;;5039616;28;20045;-69
2022/08/25 03:49:35;;;;;;;7.18;4.95;;;18.70;99.90;;;;;;5052342;28;20033;-69
2022/08/25 03:52:01;;;;;;;6.82;5.38;;;18.70;99.90;;;;;;5040505;28;20041;-69
2022/08/25 03:54:26;;;;;;;8.25;5.13;;;18.70;99.90;;;;;;5054247;28;20041;-69
2022/08/25 03:56:52;;;;;;;8.20;5.32;;;18.70;99.90;;;;;;5039257;28;20102;-69
2022/08/25 03:59:18;;;;;;;8.40;5.40;;;18.70;99.90;;;;;;5041723;28;20051;-69
2022/08/25 04:01:45;;;;;;;9.40;5.55;;;18.60;99.90;;;;;;5042379;28;20040;-69
2022/08/25 04:04:13;;;;;;;8.48;5.20;;;18.60;99.90;;;;;;5045354;28;20032;-69
2022/08/25 04:06:40;;;;;;;9.45;5.30;;;18.60;99.90;;;;;;5042911;28;20115;-69
2022/08/25 04:09:06;;;;;;;9.05;5.20;;;18.60;99.90;;;;;;5042223;28;20064;-68
2022/08/25 04:11:32;;;;;;;11.18;5.90;;;18.60;99.90;;;;;;5043524;28;20041;-69
2022/08/25 04:14:00;;;;;;;7.57;5.88;;;18.60;99.90;;;;;;5042497;28;20056;-68
2022/08/25 04:16:30;;;;;;;9.75;6.13;;;18.60;99.90;;;;;;5058856;28;20067;-69
2022/08/25 04:18:56;;;;;;;12.98;6.55;;;18.60;99.90;;;;;;5048456;28;20048;-69
2022/08/25 04:21:23;;;;;;;9.57;6.28;;;18.60;99.90;;;;;;5060612;28;20531;-69
2022/08/25 04:23:50;;;;;;;7.60;6.47;;;18.50;99.90;;;;;;5048376;28;20040;-69
2022/08/25 04:26:19;;;;;;;8.40;6.32;;;18.50;99.90;;;;;;5048506;28;20041;-69
2022/08/25 04:28:45;;;;;;;10.07;6.68;;;18.50;99.90;;;;;;5049030;28;20041;-69
2022/08/25 04:31:16;;;;;;;9.13;6.50;;;18.50;99.90;;;;;;5047190;28;20502;-70
2022/08/25 04:33:42;;;;;;;7.20;6.13;;;18.50;99.90;;;;;;5060825;28;20048;-69
2022/08/25 04:36:10;;;;;;;7.70;6.00;;;18.50;99.90;;;;;;5048877;28;20098;-68
2022/08/25 04:38:37;;;;;;;11.25;6.00;;;18.50;99.90;;;;;;5048106;28;20094;-69
2022/08/25 04:41:04;;;;;;;8.70;5.70;;;18.50;99.90;;;;;;5042289;28;20053;-69
2022/08/25 04:43:31;;;;;;;7.40;5.75;;;18.50;99.90;;;;;;5042683;28;20372;-69
2022/08/25 04:45:57;;;;;;;9.52;6.13;;;18.50;99.90;;;;;;5058127;28;20135;-69
2022/08/25 04:48:24;;;;;;;7.25;5.95;;;18.50;99.90;;;;;;5042148;28;20044;-69
2022/08/25 04:50:50;;;;;;;6.93;6.20;;;18.50;99.90;;;;;;5044118;28;20060;-68
2022/08/25 04:53:16;;;;;;;7.40;6.15;;;18.50;99.90;;;;;;5042887;28;20041;-69
2022/08/25 04:55:44;;;;;;;10.55;6.15;;;18.50;99.90;;;;;;5035422;28;20044;-69
2022/08/25 04:58:11;;;;;;;8.23;5.70;;;18.50;99.90;;;;;;5042958;28;20033;-70
2022/08/25 05:00:37;;;;;;;8.98;6.00;;;18.50;99.90;;;;;;5038956;28;20060;-69
2022/08/25 05:03:04;;;;;;;11.10;5.70;;;18.50;99.90;;;;;;5033767;28;20087;-70
2022/08/25 05:05:30;;;;;;;8.95;6.07;;;18.50;99.90;;;;;;5040908;28;20235;-69
2022/08/25 05:07:56;;;;;;;7.65;5.82;;;18.50;99.90;;;;;;5041697;28;20049;-69
2022/08/25 05:10:22;;;;;;;8.07;5.88;;;18.50;99.90;;;;;;5040266;28;20468;-69
2022/08/25 05:12:48;;;;;;;10.80;6.45;;;18.50;99.90;;;;;;5054953;28;20048;-69
2022/08/25 05:17:57;;;;;;;6.90;5.70;;;18.50;99.90;;;;;;5042514;28;20503;-69
2022/08/25 05:20:23;;;;;;;8.77;6.10;;;18.60;99.90;;;;;;5055382;28;20028;-69
2022/08/25 05:22:49;;;;;;;9.00;6.30;;;18.60;99.90;;;;;;5052685;28;20184;-68
2022/08/25 05:25:15;;;;;;;8.82;5.85;;;18.60;99.90;;;;;;5055360;28;20505;-70
2022/08/25 05:27:42;;;;;;;10.73;6.47;;;18.60;99.90;;;;;;5044577;28;20155;-68
2022/08/25 05:30:09;;;;;;;8.73;6.13;;;18.60;99.90;;;;;;5041575;28;20029;-69
2022/08/25 05:32:35;;;;;;;6.75;5.82;;;18.60;99.90;;;;;;5044621;28;20507;-69
2022/08/25 05:35:01;;;;;;;9.68;6.65;;;18.70;99.90;;;;;;5041850;28;20060;-68
2022/08/25 05:37:26;;;;;;;10.10;5.97;;;18.70;99.90;;;;;;5045322;28;20542;-69
2022/08/25 05:39:52;;;;;;;8.00;5.72;;;18.70;99.90;;;;;;5046461;28;20139;-69
2022/08/25 05:42:18;;;;;;;10.38;5.90;;;18.80;99.90;;;;;;5046757;28;20071;-68
2022/08/25 05:44:43;;;;;;;9.98;5.82;;;18.80;99.90;;;;;;5049638;28;20037;-71
2022/08/25 05:47:09;;;;;;;8.63;6.03;;;18.80;99.90;;;;;;5049403;28;20140;-69
2022/08/25 05:49:34;;;;;;;8.77;5.78;;;18.80;99.90;;;;;;5048212;28;20542;-69
2022/08/25 05:52:00;;;;;;;8.50;5.80;;;18.90;99.90;;;;;;5048646;28;20041;-69
2022/08/25 05:54:26;;;;;;;9.52;6.18;;;19.00;99.90;;;;;;5044231;28;20044;-69
2022/08/25 05:56:51;;;;;;;9.70;6.57;;;19.00;99.90;;;;;;5052541;28;20036;-68
2022/08/25 05:59:17;;;;;;;8.98;5.97;;;19.10;99.90;;;;;;5051280;28;20068;-69
2022/08/25 06:04:26;;;;;;;12.35;7.32;;;19.20;99.90;;;;;;5051053;28;20075;-69
2022/08/25 06:06:53;;;;;;;11.73;6.53;;;19.30;99.90;;;;;;5050177;28;20119;-69
2022/08/25 06:09:20;;;;;;;11.50;6.40;;;19.30;99.90;;;;;;5067698;28;20049;-69
2022/08/25 06:11:47;;;;;;;9.35;6.25;;;19.40;99.90;;;;;;5050387;28;20048;-69
2022/08/25 06:14:14;;;;;;;14.32;8.13;;;19.50;99.90;;;;;;5049610;28;20052;-69
2022/08/25 06:16:39;;;;;;;11.07;6.63;;;19.60;99.90;;;;;;5050362;28;20083;-69
2022/08/25 06:19:07;;;;;;;9.85;5.95;;;19.70;99.90;;;;;;5050998;28;20476;-69
2022/08/25 06:21:33;;;;;;;11.02;7.18;;;19.70;99.90;;;;;;5049928;28;20051;-69
2022/08/25 06:23:59;;;;;;;8.88;5.53;;;19.80;99.90;;;;;;5043812;28;20395;-69
2022/08/25 06:26:25;;;;;;;9.80;6.15;;;20.00;99.90;;;;;;5034215;28;20032;-69
2022/08/25 06:28:51;;;;;;;9.93;6.22;;;20.00;99.90;;;;;;5049796;28;20376;-69
2022/08/25 06:31:18;;;;;;;14.90;6.65;;;20.10;99.90;;;;;;5049603;28;20048;-69
2022/08/25 06:33:44;;;;;;;11.38;6.07;;;20.20;99.90;;;;;;5049252;28;20049;-70
2022/08/25 06:36:11;;;;;;;14.75;6.07;;;20.40;99.90;;;;;;5063116;28;20059;-69
2022/08/25 06:38:36;;;;;;;7.75;5.60;;;20.50;99.90;;;;;;5061502;28;20071;-69
2022/08/25 06:41:04;;;;;;;7.10;5.20;;;20.60;99.90;;;;;;5061496;28;20037;-70
2022/08/25 06:43:31;;;;;;;8.02;5.45;;;20.60;99.90;;;;;;5046061;28;20421;-68
2022/08/25 06:45:58;;;;;;;7.18;5.28;;;20.70;99.90;;;;;;5045547;28;20391;-69
2022/08/25 06:48:23;;;;;;;9.18;5.03;;;20.90;99.90;;;;;;5060516;28;20103;-70
2022/08/25 06:50:49;;;;;;;6.63;5.20;;;21.00;99.90;;;;;;5046848;28;20045;-70
2022/08/25 06:53:15;;;;;;;8.07;5.18;;;21.10;99.90;;;;;;5044918;28;20040;-70
2022/08/25 06:55:40;;;;;;;6.75;5.15;;;21.20;99.90;;;;;;5044017;28;20171;-71
2022/08/25 06:58:07;;;;;;;9.98;5.10;;;21.40;99.90;;;;;;5044739;28;20788;-71
2022/08/25 07:00:33;;;;;;;9.52;5.50;;;21.50;99.90;;;;;;5044400;28;20041;-71
2022/08/25 07:03:00;;;;;;;7.13;4.57;;;21.60;99.90;;;;;;5043159;28;20043;-72
2022/08/25 07:05:26;;;;;;;7.88;5.10;;;21.60;99.90;;;;;;5058601;28;20037;-72
2022/08/25 07:07:52;;;;;;;6.50;4.95;;;21.80;99.90;;;;;;5044446;28;21421;-71
2022/08/25 07:10:18;;;;;;;6.65;5.05;;;21.90;99.90;;;;;;5059108;28;20067;-72
2022/08/25 07:12:43;;;;;;;8.43;4.90;;;22.00;99.90;;;;;;5042502;28;20079;-72
2022/08/25 07:15:09;;;;;;;9.25;5.00;;;22.10;99.90;;;;;;5042990;28;20045;-71
2022/08/25 07:17:35;;;;;;;5.53;4.65;;;22.20;99.90;;;;;;5043242;28;20049;-71
2022/08/25 07:20:01;;;;;;;8.73;5.30;;;22.30;99.90;;;;;;5044232;28;20446;-71
2022/08/25 07:22:26;;;;;;;6.68;5.00;;;22.40;99.90;;;;;;5024371;28;20045;-72
2022/08/25 07:24:52;;;;;;;8.85;4.80;;;22.50;99.90;;;;;;5064040;28;20025;-73
2022/08/25 07:27:17;;;;;;;7.43;4.85;;;22.60;99.90;;;;;;5047165;28;20064;-72
2022/08/25 07:29:43;;;;;;;9.75;4.70;;;22.70;99.90;;;;;;5048733;28;20128;-72
2022/08/25 07:32:08;;;;;;;8.13;4.90;;;22.80;99.90;;;;;;5048366;28;20049;-72
2022/08/25 07:37:20;;;;;;;5.53;4.75;;;22.90;99.90;;;;;;5052877;28;20051;-73
2022/08/25 07:39:46;;;;;;;7.32;4.90;;;23.00;99.90;;;;;;5068808;28;20070;-71
2022/08/25 07:42:12;;;;;;;6.82;4.82;;;23.10;99.90;;;;;;5056664;28;20049;-71
2022/08/25 07:44:38;;;;;;;8.60;5.13;;;23.20;99.90;;;;;;5047417;28;20127;-71
2022/08/25 07:47:04;;;;;;;9.13;5.15;;;23.30;99.90;;;;;;5053239;28;20549;-71
2022/08/25 07:49:30;;;;;;;7.78;5.05;;;23.30;99.90;;;;;;5053004;28;20128;-71
2022/08/25 07:51:55;;;;;;;9.00;5.25;;;23.40;99.90;;;;;;5053813;28;20041;-71
2022/08/25 07:54:21;;;;;;;7.53;5.05;;;23.50;99.90;;;;;;5053146;28;20139;-72
2022/08/25 07:56:47;;;;;;;8.18;5.72;;;23.60;99.90;;;;;;5051191;28;20056;-73
2022/08/25 07:59:13;;;;;;;7.28;5.00;;;23.70;99.90;;;;;;5066110;28;20037;-73
2022/08/25 08:01:39;;;;;;;10.32;4.78;;;23.70;99.90;;;;;;5050803;28;20179;-73
2022/08/25 08:04:04;;;;;;;8.48;5.00;;;23.80;99.90;;;;;;5052850;28;20503;-71
2022/08/25 08:06:30;;;;;;;9.07;4.70;;;23.80;99.90;;;;;;5052542;28;20497;-73
2022/08/25 08:08:56;;;;;;;9.45;4.40;;;23.90;99.90;;;;;;5051608;28;20042;-73
2022/08/25 08:11:26;;;;;;;7.95;4.60;;;24.00;99.90;;;;;;5052548;28;20040;-72
2022/08/25 08:13:54;;;;;;;5.75;4.63;;;24.10;99.90;;;;;;5049012;28;20716;-74
2022/08/25 08:16:22;;;;;;;9.18;4.90;;;24.20;99.90;;;;;;5050926;28;20412;-74
2022/08/25 08:18:48;;;;;;;8.70;4.78;;;24.30;99.90;;;;;;5051639;28;20056;-72
2022/08/25 08:21:24;;;;;;;8.93;5.10;;;24.40;99.90;;;;;;5049387;28;20041;-75
2022/08/25 08:23:50;;;;;;;9.68;4.78;;;24.50;99.90;;;;;;5051955;28;20041;-73
2022/08/25 08:26:17;;;;;;;10.70;5.03;;;24.60;99.90;;;;;;5049590;28;20037;-73
2022/08/25 08:28:43;;;;;;;7.53;4.70;;;24.70;99.90;;;;;;5034496;28;20033;-73
2022/08/25 08:31:08;;;;;;;8.85;4.47;;;24.80;99.90;;;;;;5065542;28;20051;-74
2022/08/25 08:33:34;;;;;;;6.93;4.38;;;24.90;99.90;;;;;;5056818;28;20098;-74
2022/08/25 08:36:03;;;;;;;8.23;4.50;;;25.00;99.90;;;;;;5048880;28;20079;-74
2022/08/25 08:38:29;;;;;;;5.43;4.40;;;25.10;99.90;;;;;;5051620;28;20029;-74
2022/08/25 08:44:24;;;;;;;6.18;4.43;;;25.30;99.90;;;;;;5048458;28;20103;-74
2022/08/25 08:47:04;;;;;;;6.93;4.30;;;25.40;99.90;;;;;;5046602;28;20056;-75
2022/08/25 08:49:45;;;;;;;6.47;4.30;;;25.50;99.90;;;;;;5047358;28;20541;-75
2022/08/25 08:52:14;;;;;;;5.72;4.22;;;25.60;99.90;;;;;;5051267;28;20041;-74
2022/08/25 08:54:42;;;;;;;7.10;4.07;;;25.70;99.90;;;;;;5051643;28;20454;-73
2022/08/25 08:57:18;;;;;;;8.73;4.40;;;25.80;99.90;;;;;;5051176;28;20107;-74
2022/08/25 08:59:52;;;;;;;8.40;4.20;;;25.90;99.90;;;;;;5051238;28;20056;-74
2022/08/25 09:02:45;;;;;;;6.32;4.03;;;25.90;99.90;;;;;;5049180;28;20060;-73
2022/08/25 09:05:13;;;;;;;7.78;3.92;;;26.10;99.90;;;;;;5048001;28;20045;-74
2022/08/25 09:07:46;;;;;;;8.27;4.00;;;26.20;99.90;;;;;;5051693;28;20400;-72
2022/08/25 09:10:12;;;;;;;5.50;3.80;;;26.20;99.90;;;;;;5051208;28;20126;-73
2022/08/25 09:12:47;;;;;;;5.45;3.53;;;26.30;99.90;;;;;;5052211;28;20354;-72
2022/08/25 09:18:30;;;;;;;;;;;26.50;99.90;;;;;;5033019;28;20052;-73
2022/08/25 09:21:01;;;;;;;4.95;3.35;;;26.50;99.90;;;;;;5039632;28;20458;-73
2022/08/25 09:23:36;;;;;;;5.45;3.20;;;26.60;99.90;;;;;;5064209;28;20045;-72
2022/08/25 09:26:26;;;;;;;4.57;3.20;;;26.70;99.90;;;;;;5048051;28;20396;-73
2022/08/25 09:29:01;;;;;;;6.35;3.33;;;26.70;99.90;;;;;;5045622;28;20065;-73
2022/08/25 09:31:37;;;;;;;4.97;3.20;;;26.80;99.90;;;;;;5047203;28;20064;-72
2022/08/25 09:34:10;;;;;;;5.53;3.40;;;26.90;99.90;;;;;;5050496;28;20111;-73
2022/08/25 09:36:36;;;;;;;4.13;3.00;;;26.90;99.90;;;;;;5059995;28;20048;-73
2022/08/25 09:39:02;;;;;;;6.55;3.65;;;27.00;99.90;;;;;;5056531;28;20049;-73
2022/08/25 09:41:42;;;;;;;7.22;3.05;;;27.00;99.90;;;;;;5049747;28;20116;-72
2022/08/25 09:44:18;;;;;;;7.05;3.42;;;27.10;99.90;;;;;;5050736;28;20059;-73
2022/08/25 09:47:00;;;;;;;6.47;3.33;;;27.10;99.90;;;;;;5051075;28;20498;-72
2022/08/25 09:49:37;;;;;;;5.28;3.25;;;27.20;99.90;;;;;;5049616;28;20033;-73
2022/08/25 09:52:27;;;;;;;6.15;3.40;;;27.30;99.90;;;;;;5047158;28;20086;-73
2022/08/25 09:55:15;;;;;;;6.07;3.28;;;27.40;99.90;;;;;;5044524;28;20072;-72
2022/08/25 09:57:47;;;;;;;5.93;3.50;;;27.50;99.90;;;;;;5050529;28;20048;-74
2022/08/25 10:00:33;;;;;;;5.85;3.60;;;27.50;99.90;;;;;;5050327;28;20124;-73
2022/08/25 10:03:17;;;;;;;5.22;3.30;;;27.70;99.90;;;;;;5049981;28;20126;-72
2022/08/25 10:05:56;;;;;;;4.82;3.67;;;27.80;99.90;;;;;;5046213;28;20504;-72
2022/08/25 10:08:31;;;;;;;6.20;3.75;;;27.90;99.90;;;;;;5047975;28;20083;-73
2022/08/25 10:10:58;;;;;;;8.00;4.03;;;27.90;99.90;;;;;;5051291;28;20045;-73
2022/08/25 10:14:00;;;;;;;5.80;3.85;;;28.00;99.90;;;;;;5049888;28;20037;-73
2022/08/25 10:16:31;;;;;;;6.40;3.40;;;28.00;99.90;;;;;;5043309;28;20115;-73
2022/08/25 10:19:13;;;;;;;7.57;3.45;;;28.10;99.90;;;;;;5049915;28;20073;-72
2022/08/25 10:21:41;;;;;;;6.80;3.55;;;28.10;99.90;;;;;;5049469;28;20171;-73
2022/08/25 10:24:09;;;;;;;4.18;3.78;;;28.20;99.90;;;;;;5042738;28;20075;-73
2022/08/25 10:26:42;;;;;;;6.43;3.70;;;28.30;99.90;;;;;;5048218;28;20395;-75
2022/08/25 10:29:26;;;;;;;5.32;3.22;;;28.40;99.70;;;;;;5042787;28;20045;-73
2022/08/25 10:32:19;;;;;;;4.75;3.20;;;28.40;99.30;;;;;;5044526;28;20486;-73
2022/08/25 10:34:58;;;;;;;4.78;3.55;;;28.50;98.90;;;;;;5027768;28;20430;-75
2022/08/25 10:38:06;;;;;;;6.72;3.40;;;28.60;98.80;;;;;;5048356;28;20036;-74
2022/08/25 10:41:06;;;;;;;6.93;3.47;;;28.60;99.00;;;;;;5014528;28;20411;-73
2022/08/25 10:43:38;;;;;;;6.32;4.18;;;28.70;98.30;;;;;;5039910;28;20041;-74
2022/08/25 10:46:08;;;;;;;;;;;28.80;98.70;;;;;;5043006;28;20607;-75
2022/08/25 10:49:04;;;;;;;6.28;3.60;;;28.90;98.50;;;;;;5045035;28;19917;-73
2022/08/25 10:51:45;;;;;;;6.97;3.70;;;28.90;97.50;;;;;;5043866;28;20428;-74
2022/08/25 10:54:13;;;;;;;6.03;3.70;;;29.00;97.90;;;;;;5040400;28;20040;-72
2022/08/25 10:56:50;;;;;;;5.20;3.53;;;29.00;97.50;;;;;;5042071;28;20049;-74
2022/08/25 10:59:54;;;;;;;4.90;3.40;;;29.00;97.50;;;;;;5041584;28;20060;-74
2022/08/25 11:02:42;;;;;;;6.88;3.30;;;29.00;96.90;;;;;;5038095;28;20052;-73
2022/08/25 11:05:30;;;;;;;5.15;3.10;;;29.00;94.50;;;;;;5044234;28;20037;-72
2022/08/25 11:08:20;;;;;;;5.35;3.50;;;28.90;94.70;;;;;;5057306;28;20045;-73
2022/08/25 11:10:56;;;;;;;6.80;3.60;;;28.90;94.90;;;;;;5029583;28;20435;-73
2022/08/25 11:13:40;;;;;;;8.55;3.60;;;28.90;95.00;;;;;;5044875;28;20356;-74
2022/08/25 11:16:47;;;;;;;4.65;3.40;;;28.90;94.70;;;;;;5060330;28;20041;-73
2022/08/25 11:19:15;;;;;;;6.22;3.47;;;28.90;94.70;;;;;;5059471;28;20099;-72
2022/08/25 11:22:09;;;;;;;7.20;3.70;;;29.00;94.70;;;;;;5042828;28;20127;-73
2022/08/25 11:24:47;;;;;;;7.45;3.53;;;29.00;95.10;;;;;;5061602;28;20049;-72
2022/08/25 11:27:27;;;;;;;5.50;3.42;;;29.00;94.60;;;;;;5044508;28;20375;-73
2022/08/25 11:30:08;;;;;;;4.18;3.33;;;29.10;94.20;;;;;;5045475;28;20408;-73
2022/08/25 11:32:37;;;;;;;6.45;3.15;;;29.20;94.60;;;;;;5042966;28;20442;-73
2022/08/25 11:35:08;;;;;;;6.18;3.13;;;29.20;94.20;;;;;;5043605;28;20514;-74
2022/08/25 11:37:43;;;;;;;5.25;3.40;;;29.20;93.70;;;;;;5044193;28;20044;-73
2022/08/25 11:40:25;;;;;;;9.65;3.50;;;29.20;93.60;;;;;;5041518;28;20048;-73
2022/08/25 11:43:03;;;;;;;3.45;3.00;;;29.20;93.20;;;;;;5043191;28;20396;-73
2022/08/25 11:45:58;;;;;;;5.30;3.45;;;29.30;92.80;;;;;;5039257;28;20047;-72
2022/08/25 11:49:01;;;;;;;5.50;3.40;;;29.30;93.40;;;;;;5040244;28;20037;-75
2022/08/25 11:51:39;;;;;;;7.35;3.50;;;29.40;92.90;;;;;;5043090;28;20067;-74
2022/08/25 11:54:29;;;;;;;4.93;3.20;;;29.40;93.40;;;;;;5044677;28;20079;-76
2022/08/25 11:57:00;;;;;;;4.00;3.20;;;29.50;93.80;;;;;;5040614;28;20045;-73
2022/08/25 11:59:45;;;;;;;;;;;29.50;92.70;;;;;;5042514;28;20060;-73
2022/08/25 12:02:30;;;;;;;4.88;3.03;;;29.50;91.50;;;;;;5044661;28;19921;-74
2022/08/25 12:04:57;;;;;;;6.38;3.13;;;29.60;92.60;;;;;;5022105;28;20154;-75
2022/08/25 12:07:48;;;;;;;5.00;3.30;;;29.60;92.60;;;;;;5035377;28;20134;-73
2022/08/25 12:10:19;;;;;;;4.15;3.30;;;29.60;92.10;;;;;;5048456;28;20044;-72
2022/08/25 12:12:45;;;;;;;;;;;29.60;91.50;;;;;;5049374;28;20139;-73
2022/08/25 12:15:21;;;;;;;3.72;2.80;;;29.60;90.30;;;;;;5044740;28;20391;-73
2022/08/25 12:18:12;;;;;;;3.63;2.60;;;29.60;91.10;;;;;;5029570;28;20490;-75
2022/08/25 12:20:55;;;;;;;3.42;2.88;;;29.60;90.40;;;;;;5051570;28;20044;-73
2022/08/25 12:23:53;;;;;;;3.22;2.78;;;29.70;89.30;;;;;;5052505;28;20048;-74
2022/08/25 12:26:47;;;;;;;3.40;2.50;;;29.70;90.00;;;;;;5047461;28;20036;-74
2022/08/25 12:29:13;;;;;;;3.75;2.60;;;29.70;88.50;;;;;;5050775;28;20545;-74
2022/08/25 12:31:53;;;;;;;2.90;2.60;;;29.70;89.80;;;;;;5051603;28;20052;-74
2022/08/25 12:35:00;;;;;;;4.22;2.78;;;29.70;89.10;;;;;;5050656;28;20067;-73
2022/08/25 12:37:26;;;;;;;3.80;3.00;;;29.80;85.20;;;;;;5041620;28;20063;-73
2022/08/25 12:39:59;;;;;;;5.00;2.80;;;29.70;87.10;;;;;;5051912;28;20152;-74
2022/08/25 12:42:38;;;;;;;3.38;2.45;;;29.70;85.00;;;;;;5050878;28;20045;-74
2022/08/25 12:45:19;;;;;;;3.75;2.17;;;29.70;82.00;;;;;;5051695;28;20491;-74
2022/08/25 12:47:46;;;;;;;3.53;2.70;;;29.80;82.90;;;;;;5042220;28;20041;-74
2022/08/25 12:50:31;;;;;;;3.58;2.47;;;29.80;82.60;;;;;;5051339;28;20033;-74
2022/08/25 12:53:10;;;;;;;4.40;2.30;;;29.70;83.00;;;;;;5063858;28;20052;-74
2022/08/25 12:55:38;;;;;;;4.80;2.40;;;29.70;83.90;;;;;;5050227;28;20404;-75
2022/08/25 12:58:05;;;;;;;5.20;2.67;;;29.80;83.20;;;;;;5041827;28;20136;-73
2022/08/25 13:01:01;;;;;;;5.13;2.97;;;29.80;84.40;;;;;;5050152;28;20454;-74
2022/08/25 13:03:49;;;;;;;18.90;4.30;;;29.90;86.70;;;;;;5046442;28;20033;-74
2022/08/25 13:06:35;;;;;;;4.57;3.10;;;29.90;85.80;;;;;;5047718;28;20044;-73
2022/08/25 13:09:19;;;;;;;7.53;3.08;;;29.90;85.20;;;;;;5067302;28;20488;-74
2022/08/25 13:12:04;;;;;;;4.25;2.75;;;29.90;83.40;;;;;;5047067;28;20324;-73
2022/08/25 13:14:37;;;;;;;17.48;3.72;;;29.90;83.40;;;;;;5050351;28;20084;-73
2022/08/25 13:17:03;;;;;;;6.22;3.13;;;29.90;84.90;;;;;;5047520;28;20045;-74
2022/08/25 13:19:29;;;;;;;11.82;3.38;;;29.90;83.40;;;;;;5067064;28;20060;-73